Time;durP1;ratioP1;P1;durP2;ratioP2;P2;SDS_P1;SDS_P2;PMS_P1;PMS_P2;Temp;Humidity;BMP_temperature;BMP_pressure;BME280_temperature;BME280_humidity;BME280_pressure;Samples;Min_cycle;Max_cycle;Signal;HPM_P1;HPM_P2
2023/06/02 00:01:37;;;;;;;4.40;4.10;;;16.80;99.90;;;;;;5009941;28;20285;-62
2023/06/02 00:04:04;;;;;;;5.73;5.13;;;16.70;99.90;;;;;;5012093;28;20199;-62
2023/06/02 00:06:33;;;;;;;5.17;4.77;;;16.70;99.90;;;;;;5019019;28;20203;-62
2023/06/02 00:09:03;;;;;;;4.70;4.30;;;16.70;99.90;;;;;;5019823;28;20231;-61
2023/06/02 00:11:34;;;;;;;4.90;4.67;;;16.70;99.90;;;;;;5016684;28;20653;-62
2023/06/02 00:14:03;;;;;;;4.60;4.20;;;16.60;99.90;;;;;;5022523;28;20742;-64
2023/06/02 00:16:31;;;;;;;5.50;5.10;;;16.60;99.90;;;;;;5024434;28;20243;-64
2023/06/02 00:18:58;;;;;;;5.70;5.13;;;16.60;99.90;;;;;;5018094;28;20671;-63
2023/06/02 00:21:26;;;;;;;4.33;4.03;;;16.60;99.90;;;;;;5020501;28;20202;-62
2023/06/02 00:23:54;;;;;;;4.50;4.20;;;16.60;99.90;;;;;;5009550;28;20210;-61
2023/06/02 00:26:21;;;;;;;5.10;4.83;;;16.50;99.90;;;;;;5009831;28;20287;-59
2023/06/02 00:28:48;;;;;;;5.20;4.77;;;16.50;99.90;;;;;;5011972;28;20227;-62
2023/06/02 00:31:17;;;;;;;5.43;5.00;;;16.40;99.90;;;;;;5015858;28;20727;-62
2023/06/02 00:33:44;;;;;;;5.07;4.87;;;16.50;99.90;;;;;;5011152;28;20206;-65
2023/06/02 00:36:11;;;;;;;5.33;4.97;;;16.40;99.90;;;;;;5027714;28;20201;-65
2023/06/02 00:38:39;;;;;;;5.83;5.37;;;16.30;99.90;;;;;;5014722;28;20223;-51
2023/06/02 00:41:06;;;;;;;4.57;4.17;;;16.30;99.90;;;;;;5022322;28;20610;-52
2023/06/02 00:43:33;;;;;;;4.63;4.37;;;16.30;99.90;;;;;;5031557;28;20237;-52
2023/06/02 00:46:00;;;;;;;5.33;4.83;;;16.30;99.90;;;;;;5031703;28;20202;-52
2023/06/02 00:48:28;;;;;;;4.40;4.20;;;16.30;99.90;;;;;;5013922;28;20250;-52
2023/06/02 00:50:56;;;;;;;6.20;5.67;;;16.30;99.90;;;;;;5015734;28;20203;-52
2023/06/02 00:53:23;;;;;;;5.33;4.93;;;16.30;99.90;;;;;;5019707;28;20265;-52
2023/06/02 00:55:52;;;;;;;5.20;4.87;;;16.30;99.90;;;;;;5011753;28;20262;-52
2023/06/02 00:58:21;;;;;;;5.70;5.30;;;16.20;99.90;;;;;;5011833;28;20582;-54
2023/06/02 01:00:48;;;;;;;4.87;4.57;;;16.20;99.90;;;;;;5011578;28;20200;-52
2023/06/02 01:03:16;;;;;;;6.43;5.83;;;16.10;99.90;;;;;;5023246;28;20249;-52
2023/06/02 01:05:46;;;;;;;4.80;4.50;;;16.10;99.90;;;;;;5017496;28;20258;-52
2023/06/02 01:08:15;;;;;;;5.33;5.00;;;16.10;99.90;;;;;;5015794;28;20615;-52
2023/06/02 01:10:42;;;;;;;7.63;5.00;;;16.10;99.90;;;;;;5028563;28;20203;-52
2023/06/02 01:13:09;;;;;;;5.67;5.17;;;16.10;99.90;;;;;;5015453;28;20195;-52
2023/06/02 01:15:36;;;;;;;5.20;4.70;;;16.10;99.90;;;;;;5019077;28;20194;-52
2023/06/02 01:18:09;;;;;;;5.60;4.87;;;16.10;99.90;;;;;;5031400;28;20222;-51
2023/06/02 01:20:40;;;;;;;5.93;5.50;;;16.10;99.90;;;;;;5031478;28;20289;-52
2023/06/02 01:23:16;;;;;;;7.50;6.77;;;16.10;99.90;;;;;;5031101;28;20657;-52
2023/06/02 01:25:46;;;;;;;6.63;6.00;;;16.00;99.90;;;;;;5022757;28;20206;-52
2023/06/02 01:28:14;;;;;;;5.30;5.00;;;16.00;99.90;;;;;;5011621;28;20305;-52
2023/06/02 01:30:41;;;;;;;6.73;6.13;;;15.90;99.90;;;;;;5011510;28;20247;-52
2023/06/02 01:33:13;;;;;;;6.77;6.07;;;15.80;99.90;;;;;;5011370;28;20226;-52
2023/06/02 01:35:45;;;;;;;7.00;6.50;;;15.90;99.90;;;;;;5011662;28;20239;-52
2023/06/02 01:38:14;;;;;;;9.50;6.40;;;15.80;99.90;;;;;;5009144;28;20250;-52
2023/06/02 01:40:42;;;;;;;6.33;5.93;;;15.70;99.90;;;;;;5010457;28;20686;-52
2023/06/02 01:43:12;;;;;;;6.97;6.47;;;15.70;99.90;;;;;;5011605;28;20305;-52
2023/06/02 01:45:41;;;;;;;8.53;6.47;;;15.60;99.90;;;;;;5011763;28;20269;-52
2023/06/02 01:48:09;;;;;;;9.37;5.87;;;15.60;99.90;;;;;;4998863;28;20301;-52
2023/06/02 01:50:38;;;;;;;7.67;6.97;;;15.60;99.90;;;;;;5018133;28;20243;-52
2023/06/02 01:53:05;;;;;;;7.67;7.17;;;15.50;99.90;;;;;;5011094;28;20241;-52
2023/06/02 01:55:33;;;;;;;7.87;7.27;;;15.50;99.90;;;;;;5015518;28;20697;-52
2023/06/02 01:58:00;;;;;;;7.50;6.97;;;15.40;99.90;;;;;;5023045;28;20225;-52
2023/06/02 02:00:28;;;;;;;6.80;6.40;;;15.40;99.90;;;;;;5027003;28;20997;-52
2023/06/02 02:02:56;;;;;;;7.80;7.00;;;15.40;99.90;;;;;;5015900;28;20689;-52
2023/06/02 02:05:23;;;;;;;7.20;6.67;;;15.40;99.90;;;;;;5022830;28;20494;-52
2023/06/02 02:07:52;;;;;;;7.40;6.90;;;15.40;99.90;;;;;;5021917;28;20640;-52
2023/06/02 02:10:19;;;;;;;7.07;6.57;;;15.40;99.90;;;;;;5021264;28;20203;-52
2023/06/02 02:12:46;;;;;;;6.97;6.47;;;15.40;99.90;;;;;;5014877;28;20203;-52
2023/06/02 02:15:13;;;;;;;7.90;7.27;;;15.30;99.90;;;;;;5015095;28;20305;-52
2023/06/02 02:17:47;;;;;;;8.47;7.10;;;15.30;99.90;;;;;;5022566;28;20218;-52
2023/06/02 02:20:17;;;;;;;6.57;6.17;;;15.30;99.90;;;;;;5034298;28;20210;-52
2023/06/02 02:22:44;;;;;;;7.43;6.83;;;15.30;99.90;;;;;;5017014;28;20229;-51
2023/06/02 02:25:12;;;;;;;8.03;7.30;;;15.20;99.90;;;;;;5014646;28;20195;-52
2023/06/02 02:27:39;;;;;;;7.17;6.67;;;15.20;99.90;;;;;;5009931;28;20223;-52
2023/06/02 02:30:08;;;;;;;10.83;8.13;;;15.20;99.90;;;;;;5013163;28;20610;-52
2023/06/02 02:32:41;;;;;;;7.90;7.40;;;15.10;99.90;;;;;;5022250;28;20254;-52
2023/06/02 02:35:10;;;;;;;8.33;7.53;;;15.10;99.90;;;;;;4995055;28;20294;-52
2023/06/02 02:37:37;;;;;;;7.37;6.77;;;15.00;99.90;;;;;;4994967;28;20259;-51
2023/06/02 02:40:05;;;;;;;6.23;5.90;;;15.00;99.90;;;;;;5012453;28;20203;-52
2023/06/02 02:42:33;;;;;;;7.20;6.60;;;15.00;99.90;;;;;;5018702;28;20215;-51
2023/06/02 02:45:00;;;;;;;6.57;6.07;;;14.90;99.90;;;;;;5024639;28;20281;-52
2023/06/02 02:47:27;;;;;;;8.13;6.93;;;15.00;99.90;;;;;;5034018;28;20223;-52
2023/06/02 02:49:54;;;;;;;7.80;7.20;;;15.00;99.90;;;;;;5033898;28;20237;-52
2023/06/02 02:52:23;;;;;;;7.13;6.63;;;14.90;99.90;;;;;;5020798;28;20281;-51
2023/06/02 02:54:50;;;;;;;6.37;5.87;;;15.00;99.90;;;;;;5020785;28;20217;-52
2023/06/02 02:57:17;;;;;;;6.93;6.43;;;15.00;99.90;;;;;;5013908;28;20203;-52
2023/06/02 02:59:44;;;;;;;7.07;6.60;;;15.10;99.90;;;;;;5013873;28;20206;-52
2023/06/02 03:02:14;;;;;;;6.43;6.00;;;15.20;99.90;;;;;;5015582;28;20231;-52
2023/06/02 03:04:43;;;;;;;6.07;5.67;;;15.20;99.90;;;;;;5021711;28;20578;-52
2023/06/02 03:07:10;;;;;;;7.20;6.80;;;15.20;99.90;;;;;;5028619;28;21123;-52
2023/06/02 03:09:38;;;;;;;7.10;6.50;;;15.20;99.90;;;;;;5020829;28;20200;-51
2023/06/02 03:12:05;;;;;;;6.47;5.97;;;15.20;99.90;;;;;;5022836;28;20254;-51
2023/06/02 03:14:32;;;;;;;7.20;6.60;;;15.10;99.90;;;;;;5028734;28;20230;-52
2023/06/02 03:16:59;;;;;;;6.30;5.90;;;15.10;99.90;;;;;;5029219;28;20735;-52
2023/06/02 03:19:26;;;;;;;7.37;6.77;;;15.10;99.90;;;;;;5024930;28;20199;-52
2023/06/02 03:21:55;;;;;;;7.07;6.47;;;15.00;99.90;;;;;;5026619;28;20198;-52
2023/06/02 03:24:22;;;;;;;6.57;6.17;;;15.00;99.90;;;;;;5017177;28;20688;-52
2023/06/02 03:26:52;;;;;;;7.23;6.73;;;14.90;99.90;;;;;;5020567;28;20207;-51
2023/06/02 03:29:19;;;;;;;8.37;7.67;;;14.80;99.90;;;;;;5020333;28;20221;-52
2023/06/02 03:31:46;;;;;;;7.17;6.67;;;14.70;99.90;;;;;;5011097;28;20571;-52
2023/06/02 03:34:13;;;;;;;7.50;6.90;;;14.70;99.90;;;;;;5016256;28;20241;-52
2023/06/02 03:36:40;;;;;;;7.63;6.93;;;14.70;99.90;;;;;;5015706;28;20203;-51
2023/06/02 03:39:09;;;;;;;7.73;7.10;;;14.60;99.90;;;;;;5012699;28;20219;-51
2023/06/02 03:41:37;;;;;;;7.83;6.97;;;14.70;99.90;;;;;;5012961;28;20207;-52
2023/06/02 03:44:06;;;;;;;6.43;6.13;;;14.60;99.90;;;;;;5012678;28;20230;-51
2023/06/02 03:46:33;;;;;;;7.80;7.00;;;14.60;99.90;;;;;;5012688;28;20673;-51
2023/06/02 03:49:00;;;;;;;6.10;5.80;;;14.60;99.90;;;;;;5012451;28;20266;-51
2023/06/02 03:51:27;;;;;;;7.17;6.53;;;14.70;99.90;;;;;;5007083;28;20297;-51
2023/06/02 03:53:54;;;;;;;7.40;6.17;;;14.70;99.90;;;;;;5003005;28;20200;-51
2023/06/02 03:56:22;;;;;;;8.70;7.83;;;14.70;99.90;;;;;;5015007;28;20277;-52
2023/06/02 03:58:50;;;;;;;5.27;5.00;;;14.70;99.90;;;;;;5013499;28;20241;-51
2023/06/02 04:01:20;;;;;;;7.37;6.17;;;14.60;99.90;;;;;;5018297;28;20199;-51
2023/06/02 04:03:48;;;;;;;9.80;7.10;;;14.70;99.90;;;;;;5020051;28;20219;-52
2023/06/02 04:06:15;;;;;;;7.07;6.40;;;14.70;99.90;;;;;;5011787;28;20215;-52
2023/06/02 04:08:42;;;;;;;6.30;5.80;;;14.70;99.90;;;;;;5027908;28;20273;-52
2023/06/02 04:11:09;;;;;;;5.93;5.53;;;14.80;99.90;;;;;;5012877;28;20261;-52
2023/06/02 04:13:36;;;;;;;6.50;6.10;;;14.80;99.90;;;;;;5010137;28;20674;-52
2023/06/02 04:16:03;;;;;;;7.53;6.83;;;14.90;99.90;;;;;;5018872;28;20247;-51
2023/06/02 04:18:32;;;;;;;6.17;5.77;;;14.90;99.90;;;;;;5026521;28;20293;-52
2023/06/02 04:20:59;;;;;;;6.03;5.50;;;15.00;99.90;;;;;;5014128;28;20211;-52
2023/06/02 04:23:26;;;;;;;6.23;5.73;;;15.00;99.90;;;;;;5008532;28;20219;-52
2023/06/02 04:25:53;;;;;;;10.73;7.20;;;15.10;99.90;;;;;;5008395;28;20257;-52
2023/06/02 04:28:20;;;;;;;6.03;5.50;;;15.10;99.90;;;;;;5017119;28;20223;-51
2023/06/02 04:30:49;;;;;;;6.43;5.93;;;15.20;99.90;;;;;;4996380;28;20204;-51
2023/06/02 04:33:16;;;;;;;6.10;5.60;;;15.30;99.90;;;;;;5002493;28;20206;-52
2023/06/02 04:35:45;;;;;;;6.57;5.97;;;15.40;99.90;;;;;;5008604;28;20225;-52
2023/06/02 04:38:13;;;;;;;7.07;6.47;;;15.60;99.90;;;;;;5012622;28;20285;-52
2023/06/02 04:40:41;;;;;;;6.90;5.63;;;15.70;99.90;;;;;;5010112;28;20214;-51
2023/06/02 04:43:09;;;;;;;8.40;5.90;;;15.90;99.90;;;;;;5004354;28;20218;-52
2023/06/02 04:45:35;;;;;;;6.60;6.00;;;16.00;99.90;;;;;;5011897;28;20689;-52
2023/06/02 04:48:02;;;;;;;5.40;4.90;;;16.10;99.90;;;;;;5011925;28;20266;-52
2023/06/02 04:50:29;;;;;;;5.87;5.50;;;16.20;99.90;;;;;;5011816;28;20199;-51
2023/06/02 04:52:57;;;;;;;6.47;5.90;;;16.30;99.90;;;;;;5010288;28;20200;-51
2023/06/02 04:55:24;;;;;;;8.27;5.73;;;16.40;99.90;;;;;;5012095;28;20207;-52
2023/06/02 04:57:51;;;;;;;6.90;6.30;;;16.60;99.90;;;;;;5005081;28;20258;-52
2023/06/02 05:00:19;;;;;;;7.40;6.43;;;16.70;99.90;;;;;;5007030;28;20203;-52
2023/06/02 05:02:46;;;;;;;7.57;6.87;;;16.90;99.90;;;;;;5009003;28;20238;-52
2023/06/02 05:05:13;;;;;;;6.53;6.10;;;17.10;99.90;;;;;;5012038;28;20207;-52
2023/06/02 05:07:40;;;;;;;6.77;6.20;;;17.40;99.90;;;;;;5007664;28;20309;-51
2023/06/02 05:10:09;;;;;;;6.47;5.93;;;17.50;99.90;;;;;;5013776;28;20285;-52
2023/06/02 05:12:41;;;;;;;6.90;6.07;;;17.80;99.90;;;;;;5013680;28;20282;-51
2023/06/02 05:15:09;;;;;;;5.03;4.73;;;18.40;99.90;;;;;;5015426;28;20191;-52
2023/06/02 05:17:36;;;;;;;5.40;4.90;;;19.20;99.90;;;;;;5016460;28;20246;-52
2023/06/02 05:20:04;;;;;;;6.57;6.07;;;20.10;99.90;;;;;;5013149;28;20260;-52
2023/06/02 05:22:31;;;;;;;6.43;5.87;;;20.70;99.90;;;;;;5022635;28;20195;-52
2023/06/02 05:24:58;;;;;;;5.83;5.50;;;21.50;99.90;;;;;;5029287;28;20276;-52
2023/06/02 05:27:26;;;;;;;6.33;5.83;;;21.80;99.90;;;;;;5008813;28;20254;-52
2023/06/02 05:29:53;;;;;;;6.13;5.63;;;22.40;99.90;;;;;;5015036;28;20203;-52
2023/06/02 05:32:24;;;;;;;8.27;6.17;;;23.20;99.90;;;;;;5030979;28;20264;-52
2023/06/02 05:34:51;;;;;;;12.30;6.40;;;23.40;99.90;;;;;;5014204;28;20214;-52
2023/06/02 05:37:18;;;;;;;6.47;6.03;;;23.60;99.90;;;;;;5013485;28;20211;-52
2023/06/02 05:39:45;;;;;;;8.67;6.20;;;24.00;99.90;;;;;;5016890;28;20203;-52
2023/06/02 05:42:12;;;;;;;7.90;6.90;;;24.20;99.90;;;;;;5026409;28;20572;-52
2023/06/02 05:44:40;;;;;;;7.00;6.40;;;24.60;99.90;;;;;;5020694;28;20262;-52
2023/06/02 05:47:10;;;;;;;6.63;5.93;;;24.90;99.90;;;;;;5024600;28;20228;-52
2023/06/02 05:49:37;;;;;;;6.40;5.90;;;25.00;99.90;;;;;;5022025;28;20238;-52
2023/06/02 05:52:05;;;;;;;5.30;4.77;;;25.10;99.90;;;;;;5015504;28;20233;-52
2023/06/02 05:54:32;;;;;;;5.97;5.50;;;25.80;99.90;;;;;;5008521;28;20736;-52
2023/06/02 05:56:59;;;;;;;5.87;5.40;;;25.90;99.90;;;;;;5018821;28;20230;-52
2023/06/02 05:59:26;;;;;;;9.47;4.97;;;26.30;99.90;;;;;;5034678;28;20206;-52
2023/06/02 06:01:54;;;;;;;6.87;6.23;;;26.80;99.90;;;;;;5025423;28;20735;-52
2023/06/02 06:04:21;;;;;;;5.83;5.17;;;26.90;99.90;;;;;;5014492;28;20262;-52
2023/06/02 06:06:48;;;;;;;4.13;3.83;;;27.10;99.90;;;;;;5014574;28;20246;-52
2023/06/02 06:09:15;;;;;;;4.67;4.37;;;26.80;99.90;;;;;;5020721;28;20235;-52
2023/06/02 06:11:43;;;;;;;4.73;4.13;;;26.80;99.90;;;;;;5007503;28;20200;-52
2023/06/02 06:14:10;;;;;;;4.73;4.30;;;27.10;99.90;;;;;;5013963;28;20210;-52
2023/06/02 06:16:38;;;;;;;4.07;3.87;;;26.60;99.90;;;;;;5013581;28;20200;-52
2023/06/02 06:19:07;;;;;;;4.80;4.25;;;26.90;99.90;;;;;;5014405;28;20281;-52
2023/06/02 06:21:34;;;;;;;5.30;3.83;;;26.70;99.90;;;;;;5022360;28;20579;-52
2023/06/02 06:24:02;;;;;;;3.90;3.60;;;26.80;99.90;;;;;;5014123;28;20719;-52
2023/06/02 06:26:29;;;;;;;3.92;3.53;;;26.70;99.90;;;;;;5035357;22;20235;-54
2023/06/02 06:28:56;;;;;;;5.47;4.13;;;26.90;99.30;;;;;;5011996;28;20230;-56
2023/06/02 06:31:23;;;;;;;4.73;4.30;;;27.40;99.90;;;;;;5023417;28;20668;-56
2023/06/02 06:33:50;;;;;;;4.72;4.43;;;27.90;99.90;;;;;;5021643;28;20226;-56
2023/06/02 06:36:18;;;;;;;4.32;3.97;;;27.60;98.20;;;;;;5015543;28;20668;-56
2023/06/02 06:38:45;;;;;;;5.13;3.70;;;27.70;99.90;;;;;;5009371;28;20274;-56
2023/06/02 06:41:12;;;;;;;4.22;3.92;;;27.70;99.70;;;;;;5012809;28;20277;-56
2023/06/02 06:43:40;;;;;;;4.22;3.88;;;27.50;98.00;;;;;;5012684;28;20280;-56
2023/06/02 06:46:07;;;;;;;4.13;3.80;;;27.60;98.20;;;;;;5020531;28;20218;-56
2023/06/02 06:48:33;;;;;;;8.50;3.95;;;27.60;97.70;;;;;;5007846;28;20672;-56
2023/06/02 06:51:00;;;;;;;10.82;4.45;;;27.10;97.70;;;;;;5002446;28;20281;-56
2023/06/02 06:53:31;;;;;;;4.07;3.78;;;27.90;98.30;;;;;;5005723;28;22204;-57
2023/06/02 06:55:59;;;;;;;4.68;4.47;;;27.70;99.50;;;;;;5007135;28;20208;-53
2023/06/02 06:58:26;;;;;;;4.85;4.40;;;28.40;98.90;;;;;;5011789;28;20676;-54
2023/06/02 07:00:53;;;;;;;4.82;4.50;;;28.70;97.50;;;;;;5012363;28;20203;-53
2023/06/02 07:03:20;;;;;;;6.85;4.07;;;29.10;96.30;;;;;;5009568;28;20204;-53
2023/06/02 07:05:47;;;;;;;9.35;4.28;;;29.50;96.50;;;;;;5018719;28;20208;-54
2023/06/02 07:08:14;;;;;;;6.05;4.72;;;29.40;96.00;;;;;;5025650;28;20320;-54
2023/06/02 07:10:43;;;;;;;4.25;3.92;;;29.40;97.20;;;;;;5011173;28;20207;-53
2023/06/02 07:13:10;;;;;;;4.60;4.20;;;29.50;96.50;;;;;;5004373;28;20234;-53
2023/06/02 07:15:37;;;;;;;4.18;3.92;;;29.80;95.70;;;;;;5009541;28;20199;-53
2023/06/02 07:18:04;;;;;;;5.28;4.45;;;29.70;96.60;;;;;;5018900;28;20600;-54
2023/06/02 07:20:31;;;;;;;4.78;4.38;;;29.50;94.90;;;;;;5010084;28;20465;-54
2023/06/02 07:22:58;;;;;;;3.45;3.20;;;29.20;95.40;;;;;;5002149;28;20204;-54
2023/06/02 07:25:25;;;;;;;5.32;4.35;;;29.70;92.50;;;;;;5005099;28;20777;-54
2023/06/02 07:27:54;;;;;;;4.53;3.47;;;29.30;93.40;;;;;;5016020;28;20296;-54
2023/06/02 07:30:21;;;;;;;3.95;3.75;;;29.60;93.60;;;;;;5013460;28;20577;-54
2023/06/02 07:32:48;;;;;;;3.67;3.38;;;29.50;91.80;;;;;;5000123;28;20211;-53
2023/06/02 07:35:16;;;;;;;3.83;3.58;;;29.50;93.20;;;;;;5007991;28;20246;-54
2023/06/02 07:37:43;;;;;;;14.50;4.80;;;29.70;92.10;;;;;;5023727;28;20222;-54
2023/06/02 07:40:11;;;;;;;4.10;3.90;;;29.80;93.00;;;;;;5016815;28;20203;-54
2023/06/02 07:42:38;;;;;;;4.45;4.22;;;29.80;95.20;;;;;;5027079;28;20202;-54
2023/06/02 07:45:07;;;;;;;4.00;3.65;;;30.50;93.90;;;;;;5031263;28;20300;-54
2023/06/02 07:47:34;;;;;;;3.70;3.40;;;30.50;92.30;;;;;;5031203;28;20272;-54
2023/06/02 07:50:02;;;;;;;5.60;5.07;;;30.80;93.20;;;;;;5013380;28;20199;-54
2023/06/02 07:52:29;;;;;;;4.25;3.88;;;30.90;94.10;;;;;;5011438;28;20214;-60
2023/06/02 07:54:56;;;;;;;3.30;3.10;;;30.60;93.30;;;;;;5008807;28;20257;-54
2023/06/02 07:57:23;;;;;;;3.63;3.45;;;30.80;91.10;;;;;;5007508;28;20227;-54
2023/06/02 07:59:50;;;;;;;3.38;3.08;;;30.60;91.90;;;;;;5020347;28;20203;-54
2023/06/02 08:02:18;;;;;;;4.35;4.15;;;30.70;92.00;;;;;;5029969;28;20571;-55
2023/06/02 08:04:45;;;;;;;7.13;6.35;;;30.70;92.00;;;;;;5030670;28;20254;-54
2023/06/02 08:07:12;;;;;;;6.85;5.25;;;30.40;93.30;;;;;;5030839;28;20723;-54
2023/06/02 08:09:39;;;;;;;6.45;5.80;;;30.90;94.00;;;;;;5031013;28;20206;-54
2023/06/02 08:12:10;;;;;;;7.25;6.55;;;30.40;95.10;;;;;;5030807;28;20602;-54
2023/06/02 08:14:37;;;;;;;5.38;5.07;;;30.30;95.90;;;;;;5021652;28;20195;-53
2023/06/02 08:17:04;;;;;;;6.25;5.85;;;30.00;93.60;;;;;;5017007;28;20218;-54
2023/06/02 08:19:33;;;;;;;7.70;7.07;;;30.50;95.60;;;;;;5022641;28;20191;-53
2023/06/02 08:22:00;;;;;;;8.63;8.13;;;30.60;95.20;;;;;;5030589;28;20206;-54
2023/06/02 08:24:28;;;;;;;6.32;5.85;;;29.90;94.40;;;;;;5020938;28;20688;-53
2023/06/02 08:26:55;;;;;;;10.85;7.30;;;29.40;94.70;;;;;;5010942;28;20245;-53
2023/06/02 08:29:22;;;;;;;6.95;6.38;;;29.70;96.00;;;;;;5011147;28;20202;-54
2023/06/02 08:31:50;;;;;;;7.00;6.32;;;30.00;96.40;;;;;;5006778;28;20231;-54
2023/06/02 08:34:20;;;;;;;5.70;5.32;;;31.00;94.50;;;;;;5006927;28;20199;-54
2023/06/02 08:36:52;;;;;;;7.53;6.97;;;31.90;92.10;;;;;;5019627;28;20219;-54
2023/06/02 08:39:19;;;;;;;6.93;6.43;;;31.60;93.40;;;;;;5030569;28;20234;-54
2023/06/02 08:41:49;;;;;;;7.03;6.63;;;31.90;94.40;;;;;;5030583;28;20202;-54
2023/06/02 08:44:16;;;;;;;8.13;6.63;;;31.70;93.90;;;;;;5011178;28;20227;-54
2023/06/02 08:46:47;;;;;;;10.30;6.82;;;31.10;95.40;;;;;;5016451;28;20288;-53
2023/06/02 08:49:18;;;;;;;7.88;7.20;;;31.10;94.50;;;;;;5023345;28;20201;-54
2023/06/02 08:51:48;;;;;;;8.70;8.13;;;31.50;95.80;;;;;;5030500;28;20211;-55
2023/06/02 08:54:18;;;;;;;8.30;7.53;;;30.90;95.80;;;;;;5030085;28;20290;-55
2023/06/02 08:56:45;;;;;;;8.20;7.60;;;30.50;96.90;;;;;;5030076;28;20223;-55
2023/06/02 08:59:12;;;;;;;9.45;8.57;;;30.60;95.00;;;;;;5030378;28;20202;-56
2023/06/02 09:01:42;;;;;;;7.72;7.13;;;30.80;96.90;;;;;;5017597;28;20203;-53
2023/06/02 09:04:09;;;;;;;8.30;7.57;;;31.00;95.00;;;;;;5000367;28;20265;-55
2023/06/02 09:06:36;;;;;;;6.90;6.25;;;31.40;93.90;;;;;;5010074;28;20214;-53
2023/06/02 09:09:04;;;;;;;7.78;7.28;;;31.70;95.30;;;;;;5010406;28;20207;-53
2023/06/02 09:11:32;;;;;;;7.72;7.22;;;31.30;95.00;;;;;;5010713;28;20692;-53
2023/06/02 09:14:00;;;;;;;6.47;6.03;;;31.10;94.50;;;;;;5011896;28;20203;-55
2023/06/02 09:16:37;;;;;;;6.72;6.32;;;31.20;95.20;;;;;;5026357;28;20229;-55
2023/06/02 09:19:04;;;;;;;7.45;6.95;;;30.90;94.50;;;;;;5026124;28;20201;-55
2023/06/02 09:21:33;;;;;;;5.30;5.00;;;30.20;93.50;;;;;;5026113;28;20205;-55
2023/06/02 09:24:02;;;;;;;6.53;6.05;;;30.80;95.00;;;;;;5026982;28;20207;-55
2023/06/02 09:26:31;;;;;;;6.75;5.22;;;30.70;95.20;;;;;;5025873;28;20639;-56
2023/06/02 09:29:07;;;;;;;5.50;5.10;;;30.40;94.00;;;;;;5034163;28;20210;-55
2023/06/02 09:31:45;;;;;;;5.43;5.07;;;31.00;93.30;;;;;;5034041;28;20688;-55
2023/06/02 09:34:12;;;;;;;7.55;6.57;;;30.30;93.60;;;;;;5021424;28;20591;-53
2023/06/02 09:36:39;;;;;;;6.88;6.03;;;30.70;93.70;;;;;;5014073;28;20771;-55
2023/06/02 09:39:08;;;;;;;6.00;5.50;;;30.60;94.60;;;;;;5014050;28;20293;-53
2023/06/02 09:41:35;;;;;;;5.97;5.55;;;31.10;92.60;;;;;;5014164;28;20670;-53
2023/06/02 09:44:11;;;;;;;6.22;4.90;;;31.50;91.40;;;;;;5015702;28;20207;-53
2023/06/02 09:46:41;;;;;;;6.40;5.78;;;31.50;93.20;;;;;;5025461;28;20218;-52
2023/06/02 09:49:08;;;;;;;6.05;5.65;;;30.70;93.10;;;;;;5028029;28;20199;-52
2023/06/02 09:51:37;;;;;;;6.60;5.05;;;30.10;93.60;;;;;;5022090;28;20579;-55
2023/06/02 09:54:05;;;;;;;5.00;4.80;;;30.10;95.00;;;;;;5013735;28;20306;-55
2023/06/02 09:56:34;;;;;;;5.20;4.72;;;29.80;93.70;;;;;;5018987;28;20301;-55
2023/06/02 09:59:04;;;;;;;5.22;5.03;;;29.70;94.30;;;;;;5025378;28;20628;-54
2023/06/02 10:01:32;;;;;;;5.28;4.97;;;30.00;94.10;;;;;;5033872;28;20552;-55
2023/06/02 10:03:59;;;;;;;6.32;5.90;;;29.90;93.90;;;;;;5033311;28;20564;-54
2023/06/02 10:06:41;;;;;;;5.25;4.85;;;29.80;95.00;;;;;;5020935;28;20245;-55
2023/06/02 10:09:22;;;;;;;6.18;5.78;;;29.80;95.20;;;;;;5012870;28;20453;-61
2023/06/02 10:12:05;;;;;;;6.28;5.82;;;30.20;94.60;;;;;;5025112;28;20642;-60
2023/06/02 10:15:08;;;;;;;8.30;5.18;;;30.70;94.00;;;;;;5033069;28;20206;-64
2023/06/02 10:17:45;;;;;;;6.45;4.93;;;30.70;95.50;;;;;;5033296;28;20629;-64
2023/06/02 10:20:26;;;;;;;5.75;5.10;;;29.40;93.80;;;;;;5013556;28;20206;-70
2023/06/02 10:23:11;;;;;;;5.10;4.70;;;29.80;93.00;;;;;;5011758;28;20773;-68
2023/06/02 10:25:49;;;;;;;6.45;4.55;;;29.80;93.50;;;;;;5028353;28;20265;-63
2023/06/02 10:28:17;;;;;;;5.15;4.80;;;29.90;93.30;;;;;;5033168;28;20272;-63
2023/06/02 10:30:45;;;;;;;5.80;5.30;;;30.20;92.00;;;;;;5024419;28;20226;-62
2023/06/02 10:33:12;;;;;;;5.03;4.63;;;29.80;93.30;;;;;;5011841;28;20605;-62
2023/06/02 10:35:59;;;;;;;5.40;4.90;;;29.60;93.40;;;;;;5019696;28;20247;-62
2023/06/02 10:38:28;;;;;;;6.93;4.90;;;29.60;94.10;;;;;;4993394;28;20210;-64
2023/06/02 10:40:55;;;;;;;4.60;4.40;;;29.70;91.20;;;;;;5001034;28;20226;-54
2023/06/02 10:43:22;;;;;;;5.85;5.40;;;29.40;93.10;;;;;;5011794;28;20234;-54
2023/06/02 10:45:51;;;;;;;5.32;4.90;;;29.00;93.50;;;;;;5029845;28;20214;-54
2023/06/02 10:48:40;;;;;;;5.78;5.22;;;28.90;92.40;;;;;;5032877;28;20203;-54
2023/06/02 10:51:08;;;;;;;4.78;4.47;;;29.30;93.90;;;;;;5021140;28;20209;-54
2023/06/02 10:54:14;;;;;;;4.63;4.38;;;29.30;95.40;;;;;;5023829;28;20195;-54
2023/06/02 10:56:42;;;;;;;5.28;4.68;;;29.40;94.80;;;;;;5025781;28;20222;-54
2023/06/02 10:59:11;;;;;;;5.50;5.10;;;28.70;96.30;;;;;;5024384;28;20199;-66
2023/06/02 11:01:47;;;;;;;5.00;4.57;;;28.60;96.30;;;;;;5023712;28;20207;-59
2023/06/02 11:04:31;;;;;;;4.45;4.25;;;28.50;95.10;;;;;;5017481;28;20202;-68
2023/06/02 11:07:26;;;;;;;6.90;5.03;;;28.60;94.40;;;;;;5032001;28;20573;-68
2023/06/02 11:09:58;;;;;;;5.40;4.95;;;28.40;95.70;;;;;;5032090;28;20206;-59
2023/06/02 11:13:02;;;;;;;6.57;4.65;;;28.20;96.10;;;;;;5018774;28;20214;-53
2023/06/02 11:15:29;;;;;;;4.63;4.28;;;28.30;95.30;;;;;;5014992;28;20198;-55
2023/06/02 11:17:57;;;;;;;4.82;4.53;;;28.30;97.50;;;;;;5013687;28;20246;-55
2023/06/02 11:20:34;;;;;;;4.15;3.90;;;28.20;94.80;;;;;;5012425;28;20261;-55
2023/06/02 11:23:04;;;;;;;4.60;4.15;;;27.60;95.80;;;;;;5012265;28;20203;-56
2023/06/02 11:25:31;;;;;;;6.47;4.20;;;27.80;95.90;;;;;;5009842;28;20247;-55
2023/06/02 11:27:58;;;;;;;4.70;4.30;;;27.80;95.30;;;;;;5012240;28;20542;-55
2023/06/02 11:30:26;;;;;;;4.40;4.20;;;27.80;94.80;;;;;;5009672;28;20239;-55
2023/06/02 11:32:53;;;;;;;4.07;3.97;;;27.70;96.10;;;;;;5025279;28;20198;-55
2023/06/02 11:35:25;;;;;;;5.43;3.80;;;27.60;95.20;;;;;;5011866;28;20265;-56
2023/06/02 11:38:04;;;;;;;4.50;4.20;;;27.80;95.50;;;;;;5011758;28;20219;-55
2023/06/02 11:40:32;;;;;;;4.25;3.70;;;27.60;93.50;;;;;;5011957;28;20207;-56
2023/06/02 11:42:59;;;;;;;4.97;4.50;;;27.60;93.70;;;;;;5011982;28;20697;-55
2023/06/02 11:45:27;;;;;;;4.05;3.83;;;27.70;95.10;;;;;;5023131;28;20288;-55
2023/06/02 11:48:00;;;;;;;4.20;3.95;;;27.80;95.70;;;;;;5030991;28;20222;-56
2023/06/02 11:50:29;;;;;;;10.25;3.75;;;27.90;95.40;;;;;;5011674;28;20209;-55
2023/06/02 11:52:56;;;;;;;4.50;3.63;;;27.80;92.80;;;;;;5011672;28;20215;-56
2023/06/02 11:55:27;;;;;;;5.93;4.03;;;27.70;92.00;;;;;;5011840;28;20203;-55
2023/06/02 11:57:54;;;;;;;3.88;3.58;;;27.60;92.60;;;;;;5012266;28;20215;-55
2023/06/02 12:00:21;;;;;;;4.00;3.80;;;27.60;92.60;;;;;;5022564;28;20245;-55
2023/06/02 12:02:51;;;;;;;4.22;4.03;;;27.50;92.10;;;;;;5023112;28;20210;-55
2023/06/02 12:05:33;;;;;;;3.72;3.53;;;27.40;92.70;;;;;;5031619;28;20210;-55
2023/06/02 12:08:14;;;;;;;4.45;4.15;;;27.30;92.80;;;;;;5020032;28;20303;-55
2023/06/02 12:10:42;;;;;;;4.00;3.80;;;27.20;94.60;;;;;;5011582;28;20687;-55
2023/06/02 12:13:09;;;;;;;3.73;3.63;;;27.20;92.50;;;;;;5010631;28;20598;-55
2023/06/02 12:15:37;;;;;;;4.80;4.25;;;27.30;94.40;;;;;;5019767;28;20195;-56
2023/06/02 12:18:05;;;;;;;3.97;3.65;;;27.40;92.40;;;;;;5030505;28;20223;-55
2023/06/02 12:20:42;;;;;;;4.15;3.75;;;27.30;93.30;;;;;;5031075;28;20279;-55
2023/06/02 12:23:10;;;;;;;4.57;4.28;;;27.40;92.90;;;;;;5030939;28;20581;-55
2023/06/02 12:25:37;;;;;;;4.63;4.18;;;27.40;93.60;;;;;;5014415;28;20712;-55
2023/06/02 12:28:10;;;;;;;9.43;5.28;;;27.40;93.50;;;;;;5011014;28;20227;-55
2023/06/02 12:30:37;;;;;;;4.35;4.15;;;27.50;93.70;;;;;;5015948;28;20261;-55
2023/06/02 12:33:09;;;;;;;8.52;4.45;;;27.40;94.20;;;;;;5011145;28;20210;-55
2023/06/02 12:35:36;;;;;;;4.97;4.68;;;27.10;93.20;;;;;;5009554;28;20446;-68
2023/06/02 12:38:05;;;;;;;5.45;4.30;;;27.00;94.00;;;;;;5012548;28;20222;-65
2023/06/02 12:40:33;;;;;;;4.93;4.50;;;27.10;95.20;;;;;;5040526;23;20203;-61
2023/06/02 12:43:00;;;;;;;4.88;4.55;;;27.00;95.00;;;;;;5007472;28;20227;-61
2023/06/02 12:45:27;;;;;;;5.17;4.73;;;26.90;95.00;;;;;;5004038;28;20219;-62
2023/06/02 12:47:54;;;;;;;5.57;4.93;;;26.90;95.40;;;;;;5004654;28;20676;-62
2023/06/02 12:50:22;;;;;;;4.35;4.20;;;27.00;95.00;;;;;;5007551;28;20679;-62
2023/06/02 12:52:50;;;;;;;5.25;4.75;;;26.90;95.00;;;;;;5001460;28;20222;-62
2023/06/02 12:55:18;;;;;;;4.80;4.60;;;26.90;95.40;;;;;;5011852;28;20704;-59